Elnora, IN (47529)

3:03 AM EDT en Octubre 21, 2014 (GMT -0400)
KINSANDB2 | Change Station
CLOSE
Current Station
Estación meteorológica personal
Location: Sandborn, IN
Altura: 479 ft
Estaciones meteorológicas cercanas

Alt 479 ft 38.90 °N, 87.18 °W | Updated 8 minutes ago

Despejado
Despejado
47.8 ° F
Sensación térmica 48 ° F
N
0.0
Viento Variable Viento desde OSO
Gusts 1.0 mph

Hoy
Alta -- | Baja -- ° F
--% Posibilidad de precipitaciones
Ayer
Alta -- | Baja -- ° F
Precip. -- pul
8:03 AM 7:01 PM
Creciente menguante, 7% visible
Presión 29.98 pul
Visibilidad 10.0 Millas
Nubes Despejado
Vientos helados 48 ° F
Punto de rocío 46 ° F
Humedad 94%
Precipitaciones 0.00 pul
Espesor de la nieve No disponible.
UV 0 de una escala de 12
Polen 2.10 de una escala de 12
Calidad del aire No disponible.
Flu Activity Sporadic
METAR KDCY 210655Z AUTO 30004KT 10SM CLR 11/07 A2998 RMK AO2 T01050072

More Conditions Fewer Conditions

Presión 29.98 pul
Visibilidad 10.0 Millas
Nubes Despejado
Vientos helados 48 ° F
Punto de rocío 46 ° F
Humedad 94%
Precipitaciones 0.00 pul
Espesor de la nieve No disponible.
UV 0 de una escala de 12
Polen 2.10 de una escala de 12
Calidad del aire No disponible.
Flu Activity Sporadic
METAR KDCY 210655Z AUTO 30004KT 10SM CLR 11/07 A2998 RMK AO2 T01050072

More Conditions Fewer Conditions

10-Day Weather Forecast

Almanac

Astronomía

Oct. 21, 2014 Salida Puesta
Hora real 8:03 AM EDT 7:01 PM EDT
Crepúsculo civil 7:36 AM EDT 7:28 PM EDT
Crepúsculo náutico 7:05 AM EDT 7:59 PM EDT
Crepúsculo astronómico 6:34 AM EDT 8:30 PM EDT
Luna 5:48 AM EDT 5:54 PM EDT
Horas de luz 11h 51m
Horas de luz
10h 57m
Tomorrow will be 2m 22s shorter.
Creciente menguante, 7% of the Moon is Illuminated
Hoy
Creciente menguante
Oct 23
Nueva
Oct 30
Cuarto creciente
Nov 6
Luna llena
Nov 14
Cuarto menguante

Extremos de hoy

Máximos del estado Bajos del estado

Community

WunderPhotos

Upload Photos

1,763,619 ¡fotos cargadas!

Nearby

Grosos de nieve

Estación Profundido Altura
No tenemos constancia de nieve nueva.

Actividad de terremotos

Ciudad Distance Mag. Tiempo y dato
No hay informes recientes de la actividad sísmica.
Magnitud mínima muestra es 2,5.

Temperaturas de aguas costeras

Lugar Temperatura
Sin partes meteorológicos de las estaciones

Estaciones meteorológicas cercanas